createdAt,value
2018-09-11T00:00:20.710Z,93.41
2018-09-11T00:02:49.934Z,92.59
2018-09-11T00:05:19.039Z,93.33
2018-09-11T00:07:48.122Z,92.80
2018-09-11T00:10:18.059Z,93.00
2018-09-11T00:12:47.181Z,92.67
2018-09-11T00:15:16.298Z,92.63
2018-09-11T00:17:45.381Z,92.30
2018-09-11T00:20:14.503Z,91.77
2018-09-11T00:22:43.619Z,92.16
2018-09-11T00:25:12.687Z,92.32
2018-09-11T00:27:41.799Z,91.79
2018-09-11T00:30:10.976Z,92.03
2018-09-11T00:32:40.110Z,91.37
2018-09-11T00:35:09.234Z,91.33
2018-09-11T00:37:38.351Z,91.21
2018-09-11T00:40:07.470Z,91.42
2018-09-11T00:42:36.578Z,91.62
2018-09-11T00:45:05.899Z,91.81
2018-09-11T00:47:35.006Z,91.86
2018-09-11T00:50:04.150Z,92.00
2018-09-11T00:52:33.271Z,92.62
2018-09-11T00:55:02.370Z,92.21
2018-09-11T00:57:31.486Z,92.36
2018-09-11T01:00:00.717Z,92.19
2018-09-11T01:02:30.105Z,92.41
2018-09-11T01:04:58.771Z,93.56
2018-09-11T01:07:27.898Z,93.00
2018-09-11T01:09:57.385Z,92.79
2018-09-11T01:12:27.266Z,93.72
2018-09-11T01:14:56.377Z,95.55
2018-09-11T01:17:25.514Z,95.58
2018-09-11T01:19:54.823Z,95.54
2018-09-11T01:22:23.938Z,95.20
2018-09-11T01:24:53.634Z,94.09
2018-09-11T01:27:22.757Z,95.90
2018-09-11T01:29:51.888Z,96.54
2018-09-11T01:32:21.098Z,96.14
2018-09-11T01:34:50.203Z,96.54
2018-09-11T01:37:19.307Z,97.04
2018-09-11T01:39:49.231Z,97.80
2018-09-11T01:42:18.338Z,97.88
2018-09-11T01:44:47.420Z,97.78
2018-09-11T01:47:16.579Z,97.59
2018-09-11T01:49:45.669Z,98.06
2018-09-11T01:52:15.635Z,98.52
2018-09-11T01:54:44.817Z,98.90
2018-09-11T01:57:13.981Z,99.75
2018-09-11T01:59:43.082Z,99.82
2018-09-11T02:02:12.657Z,99.82
2018-09-11T02:04:41.718Z,100.00
2018-09-11T02:07:10.311Z,100.00
2018-09-11T02:09:39.417Z,100.00
2018-09-11T02:12:08.533Z,100.00
2018-09-11T02:14:37.678Z,100.00
2018-09-11T02:17:07.264Z,100.00
2018-09-11T02:19:36.354Z,100.00
2018-09-11T02:22:06.434Z,100.00
2018-09-11T02:24:36.764Z,99.79
2018-09-11T02:27:06.198Z,99.45
2018-09-11T02:29:36.126Z,99.34
2018-09-11T02:32:05.394Z,99.33
2018-09-11T02:34:34.639Z,99.55
2018-09-11T02:37:04.378Z,99.64
2018-09-11T02:39:33.492Z,100.00
2018-09-11T02:42:02.590Z,99.82
2018-09-11T02:44:31.731Z,99.61
2018-09-11T02:47:00.872Z,99.46
2018-09-11T02:49:29.999Z,100.00
2018-09-11T02:51:59.116Z,100.00
2018-09-11T02:54:28.276Z,100.00
2018-09-11T02:56:57.495Z,100.00
2018-09-11T02:59:26.625Z,100.00
2018-09-11T03:01:55.798Z,100.00
2018-09-11T03:04:25.051Z,100.00
2018-09-11T03:06:54.258Z,100.00
2018-09-11T03:09:23.527Z,100.00
2018-09-11T03:11:52.734Z,100.00
2018-09-11T03:14:22.130Z,100.00
2018-09-11T03:16:51.338Z,100.00
2018-09-11T03:19:20.542Z,100.00
2018-09-11T03:21:49.755Z,100.00
2018-09-11T03:24:18.898Z,100.00
2018-09-11T03:26:48.021Z,100.00
2018-09-11T03:29:17.614Z,100.00
2018-09-11T03:31:46.734Z,100.00
2018-09-11T03:34:15.855Z,100.00
2018-09-11T03:36:45.026Z,100.00
2018-09-11T03:39:14.811Z,100.00
2018-09-11T03:41:44.710Z,100.00
2018-09-11T03:44:13.900Z,100.00
2018-09-11T03:46:42.946Z,100.00
2018-09-11T03:49:12.094Z,100.00
2018-09-11T03:51:41.206Z,100.00
2018-09-11T03:54:11.083Z,100.00
2018-09-11T03:56:40.182Z,100.00
2018-09-11T03:59:10.074Z,100.00
2018-09-11T04:01:40.057Z,100.00
2018-09-11T04:04:09.307Z,100.00
2018-09-11T04:06:38.538Z,100.00
2018-09-11T04:09:11.043Z,100.00
2018-09-11T04:11:40.775Z,100.00
2018-09-11T04:14:10.135Z,100.00
2018-09-11T04:16:39.775Z,100.00
2018-09-11T04:19:09.100Z,100.00
2018-09-11T04:21:38.202Z,100.00
2018-09-11T04:24:07.451Z,100.00
2018-09-11T04:26:36.623Z,100.00
2018-09-11T04:29:05.766Z,100.00
2018-09-11T04:31:34.931Z,100.00
2018-09-11T04:34:04.117Z,100.00
2018-09-11T04:36:33.332Z,100.00
2018-09-11T04:39:02.439Z,100.00
2018-09-11T04:41:31.538Z,100.00
2018-09-11T04:44:00.873Z,100.00
2018-09-11T04:46:30.018Z,100.00
2018-09-11T04:48:59.142Z,100.00
2018-09-11T04:51:28.357Z,100.00
2018-09-11T04:53:58.055Z,100.00
2018-09-11T04:56:27.187Z,100.00
2018-09-11T04:58:56.310Z,100.00
2018-09-11T05:01:26.062Z,100.00
2018-09-11T05:03:55.310Z,100.00
2018-09-11T05:06:24.546Z,100.00
2018-09-11T05:08:54.856Z,100.00
2018-09-11T05:11:24.110Z,100.00
2018-09-11T05:13:53.409Z,100.00
2018-09-11T05:16:22.629Z,100.00
2018-09-11T05:18:54.839Z,100.00
2018-09-11T05:21:24.044Z,100.00
2018-09-11T05:23:53.238Z,100.00
2018-09-11T05:26:24.238Z,100.00
2018-09-11T05:28:55.142Z,100.00
2018-09-11T05:31:24.315Z,100.00
2018-09-11T05:33:53.515Z,100.00
2018-09-11T05:36:22.642Z,100.00
2018-09-11T05:38:51.791Z,100.00
2018-09-11T05:41:21.358Z,100.00
2018-09-11T05:43:50.465Z,100.00
2018-09-11T05:46:19.574Z,100.00
2018-09-11T05:48:49.392Z,100.00
2018-09-11T05:51:18.489Z,100.00
2018-09-11T05:53:47.614Z,97.83
2018-09-11T05:56:16.778Z,91.25
2018-09-11T05:58:45.933Z,86.97
2018-09-11T06:01:14.994Z,83.14
2018-09-11T06:03:44.147Z,79.55
2018-09-11T06:06:13.254Z,75.44
2018-09-11T06:08:43.255Z,71.64
2018-09-11T06:11:11.991Z,68.81
2018-09-11T06:13:41.098Z,66.55
2018-09-11T06:16:10.278Z,63.45
2018-09-11T06:18:39.379Z,61.92
2018-09-11T06:21:08.560Z,60.68
2018-09-11T06:23:38.482Z,60.14
2018-09-11T06:26:08.454Z,61.40
2018-09-11T06:28:37.732Z,61.43
2018-09-11T06:31:08.412Z,61.72
2018-09-11T06:33:37.518Z,58.04
2018-09-11T06:36:06.757Z,59.72
2018-09-11T06:38:35.918Z,57.66
2018-09-11T06:41:05.112Z,58.86
2018-09-11T06:43:34.242Z,56.41
2018-09-11T06:46:03.605Z,54.34
2018-09-11T06:48:33.238Z,50.92
2018-09-11T06:51:02.610Z,49.40
2018-09-11T06:53:31.681Z,47.82
2018-09-11T06:56:00.792Z,48.09
2018-09-11T06:58:29.954Z,45.59
2018-09-11T07:00:59.094Z,42.25
2018-09-11T07:03:28.805Z,44.56
2018-09-11T07:05:57.926Z,44.62
2018-09-11T07:08:34.203Z,43.41
2018-09-11T07:11:03.516Z,42.42
2018-09-11T07:13:33.554Z,41.09
2018-09-11T07:16:02.894Z,41.85
2018-09-11T07:18:32.246Z,42.50
2018-09-11T07:21:01.274Z,41.77
2018-09-11T07:23:30.634Z,39.81
2018-09-11T07:26:01.603Z,41.95
2018-09-11T07:28:30.646Z,45.97
2018-09-11T07:30:59.762Z,46.80
2018-09-11T07:33:28.878Z,44.78
2018-09-11T07:35:58.002Z,44.00
2018-09-11T07:38:27.135Z,43.45
2018-09-11T07:40:56.230Z,44.77
2018-09-11T07:43:25.360Z,42.83
2018-09-11T07:45:54.600Z,41.86
2018-09-11T07:48:23.719Z,41.77
2018-09-11T07:50:52.914Z,41.96
2018-09-11T07:53:22.054Z,40.48
2018-09-11T07:55:50.810Z,38.19
2018-09-11T07:58:20.025Z,38.85
2018-09-11T08:00:49.130Z,36.65
2018-09-11T08:03:18.271Z,34.59
2018-09-11T08:05:47.389Z,31.87
2018-09-11T08:08:16.514Z,30.08
2018-09-11T08:10:47.023Z,29.93
2018-09-11T08:13:16.546Z,29.29
2018-09-11T08:15:47.442Z,31.02
2018-09-11T08:18:16.602Z,34.84
2018-09-11T08:20:45.914Z,37.81
2018-09-11T08:23:15.055Z,37.11
2018-09-11T08:25:44.514Z,36.64
2018-09-11T08:28:13.615Z,39.50
2018-09-11T08:30:42.762Z,41.09
2018-09-11T08:33:11.850Z,41.08
2018-09-11T08:35:42.878Z,44.08
2018-09-11T08:38:11.601Z,42.69
2018-09-11T08:40:40.731Z,44.19
2018-09-11T08:43:10.507Z,44.75
2018-09-11T08:45:39.718Z,46.26
2018-09-11T08:48:08.830Z,46.98
2018-09-11T08:50:38.022Z,46.67
2018-09-11T08:53:07.151Z,46.04
2018-09-11T08:55:36.307Z,45.16
2018-09-11T08:58:05.540Z,45.26
2018-09-11T09:00:34.660Z,45.26
2018-09-11T09:03:03.800Z,46.28
2018-09-11T09:05:32.914Z,46.27
2018-09-11T09:08:02.070Z,46.25
2018-09-11T09:10:31.254Z,46.77
2018-09-11T09:13:00.386Z,46.57
2018-09-11T09:15:29.668Z,47.04
2018-09-11T09:17:59.230Z,46.68
2018-09-11T09:20:29.150Z,46.04
2018-09-11T09:22:58.371Z,46.12
2018-09-11T09:25:27.529Z,46.82
2018-09-11T09:27:57.109Z,47.39
2018-09-11T09:30:26.471Z,44.43
2018-09-11T09:32:55.970Z,44.32
2018-09-11T09:35:25.130Z,43.81
2018-09-11T09:37:54.240Z,43.47
2018-09-11T09:40:23.350Z,42.35
2018-09-11T09:42:52.503Z,42.47
2018-09-11T09:45:21.811Z,42.31
2018-09-11T09:47:51.446Z,41.69
2018-09-11T09:50:21.116Z,41.17
2018-09-11T09:52:50.478Z,41.15
2018-09-11T09:55:19.695Z,41.71
2018-09-11T09:57:49.430Z,40.10
2018-09-11T10:00:24.659Z,39.41
2018-09-11T10:02:54.199Z,39.28
2018-09-11T10:05:23.431Z,38.87
2018-09-11T10:07:52.639Z,38.98
2018-09-11T10:10:21.871Z,39.23
2018-09-11T10:12:51.101Z,38.77
2018-09-11T10:15:20.639Z,36.89
2018-09-11T10:17:49.943Z,36.40
2018-09-11T10:20:19.531Z,35.70
2018-09-11T10:22:48.746Z,34.39
2018-09-11T10:25:18.060Z,33.21
2018-09-11T10:27:47.690Z,35.55
2018-09-11T10:30:17.086Z,36.26
2018-09-11T10:32:46.198Z,35.25
2018-09-11T10:35:15.730Z,35.14
2018-09-11T10:37:44.862Z,35.41
2018-09-11T10:40:13.974Z,32.87
2018-09-11T10:42:43.078Z,33.54
2018-09-11T10:45:12.314Z,31.60
2018-09-11T10:47:41.552Z,30.91
2018-09-11T10:50:11.273Z,30.58
2018-09-11T10:52:40.062Z,30.42
2018-09-11T10:55:09.170Z,29.94
2018-09-11T10:57:38.389Z,31.13
2018-09-11T11:00:07.552Z,30.21
2018-09-11T11:02:36.660Z,30.18
2018-09-11T11:05:05.817Z,32.66
2018-09-11T11:07:34.922Z,33.09
2018-09-11T11:10:04.108Z,32.95
2018-09-11T11:12:33.228Z,33.57
2018-09-11T11:15:02.404Z,33.35
2018-09-11T11:17:31.575Z,34.59
2018-09-11T11:20:01.145Z,34.13
2018-09-11T11:22:30.254Z,34.47
2018-09-11T11:24:59.394Z,35.59
2018-09-11T11:27:28.515Z,32.89
2018-09-11T11:29:57.625Z,31.67
2018-09-11T11:32:26.759Z,28.38
2018-09-11T11:34:55.883Z,27.06
2018-09-11T11:37:25.133Z,27.80
2018-09-11T11:39:54.142Z,22.22
2018-09-11T11:42:23.309Z,24.04
2018-09-11T11:44:58.923Z,25.62
2018-09-11T11:47:28.573Z,25.07
2018-09-11T11:49:57.974Z,22.88
2018-09-11T11:52:28.484Z,25.14
2018-09-11T11:54:57.233Z,23.62
2018-09-11T11:57:26.401Z,20.71
2018-09-11T11:59:55.515Z,22.00
2018-09-11T12:02:24.718Z,20.41
2018-09-11T12:04:54.095Z,18.17
2018-09-11T12:07:24.851Z,17.56
2018-09-11T12:09:54.039Z,20.43
2018-09-11T12:12:23.594Z,24.50
2018-09-11T12:14:52.710Z,24.25
2018-09-11T12:17:22.062Z,23.16
2018-09-11T12:19:51.178Z,21.62
2018-09-11T12:22:20.285Z,21.91
2018-09-11T12:24:49.419Z,18.67
2018-09-11T12:27:18.517Z,18.30
2018-09-11T12:29:47.616Z,17.51
2018-09-11T12:32:17.403Z,18.43
2018-09-11T12:34:47.339Z,22.49
2018-09-11T12:37:16.202Z,23.06
2018-09-11T12:39:45.314Z,23.30
2018-09-11T12:42:14.583Z,28.53
2018-09-11T12:44:43.824Z,31.07
2018-09-11T12:47:13.288Z,32.93
2018-09-11T12:49:42.642Z,33.78
2018-09-11T12:52:12.042Z,33.73
2018-09-11T12:54:43.163Z,34.28
2018-09-11T12:57:12.419Z,34.95
2018-09-11T12:59:41.522Z,34.48
2018-09-11T13:02:10.842Z,32.88
2018-09-11T13:04:39.992Z,33.59
2018-09-11T13:07:09.102Z,32.77
2018-09-11T13:09:38.260Z,32.57
2018-09-11T13:12:08.099Z,30.33
2018-09-11T13:14:37.246Z,27.98
2018-09-11T13:17:06.347Z,25.53
2018-09-11T13:19:35.462Z,23.71
2018-09-11T13:22:04.590Z,25.87
2018-09-11T13:24:33.699Z,24.65
2018-09-11T13:27:02.815Z,24.28
2018-09-11T13:29:32.023Z,25.38
2018-09-11T13:32:01.567Z,25.51
2018-09-11T13:34:30.730Z,25.51
2018-09-11T13:36:59.914Z,26.30
2018-09-11T13:39:29.022Z,26.64
2018-09-11T13:41:58.138Z,28.78
2018-09-11T13:44:27.967Z,27.54
2018-09-11T13:46:57.123Z,28.59
2018-09-11T13:49:26.886Z,26.93
2018-09-11T13:51:55.618Z,24.70
2018-09-11T13:54:24.759Z,22.14
2018-09-11T13:56:53.875Z,22.70
2018-09-11T13:59:23.027Z,23.16
2018-09-11T14:01:52.173Z,23.91
2018-09-11T14:04:21.316Z,21.75
2018-09-11T14:06:50.425Z,20.00
2018-09-11T14:09:19.751Z,19.05
2018-09-11T14:11:48.870Z,19.12
2018-09-11T14:14:18.024Z,18.99
2018-09-11T14:16:47.924Z,18.29
2018-09-11T14:19:17.011Z,22.83
2018-09-11T14:21:46.136Z,25.20
2018-09-11T14:24:15.227Z,27.06
2018-09-11T14:26:44.390Z,27.50
2018-09-11T14:29:13.491Z,27.29
2018-09-11T14:31:42.990Z,27.98
2018-09-11T14:34:12.462Z,29.41
2018-09-11T14:36:42.010Z,30.07
2018-09-11T14:39:11.923Z,29.83
2018-09-11T14:41:40.851Z,30.02
2018-09-11T14:44:10.406Z,30.77
2018-09-11T14:46:39.554Z,30.64
2018-09-11T14:49:08.651Z,27.91
2018-09-11T14:51:37.991Z,25.45
2018-09-11T14:54:07.321Z,24.04
2018-09-11T14:56:36.530Z,23.42
2018-09-11T14:59:07.133Z,23.62
2018-09-11T15:01:36.842Z,24.99
2018-09-11T15:04:06.449Z,23.04
2018-09-11T15:06:35.218Z,25.18
2018-09-11T15:09:07.881Z,25.52
2018-09-11T15:11:37.506Z,27.85
2018-09-11T15:14:06.971Z,28.53
2018-09-11T15:16:36.259Z,29.06
2018-09-11T15:19:05.583Z,30.30
2018-09-11T15:21:35.030Z,30.11
2018-09-11T15:24:04.627Z,31.03
2018-09-11T15:26:35.111Z,31.85
2018-09-11T15:29:04.823Z,31.81
2018-09-11T15:31:34.515Z,31.85
2018-09-11T15:34:03.871Z,32.05
2018-09-11T15:36:33.822Z,32.54
2018-09-11T15:39:03.851Z,32.86
2018-09-11T15:41:33.772Z,32.19
2018-09-11T15:44:03.941Z,32.45
2018-09-11T15:46:33.439Z,32.26
2018-09-11T15:49:03.370Z,32.73
2018-09-11T15:51:33.244Z,32.75
2018-09-11T15:54:03.275Z,32.60
2018-09-11T15:56:31.594Z,33.17
2018-09-11T15:59:00.815Z,32.84
2018-09-11T16:01:30.694Z,33.29
2018-09-11T16:04:00.267Z,32.22
2018-09-11T16:06:29.835Z,32.28
2018-09-11T16:08:59.195Z,32.83
2018-09-11T16:11:28.338Z,31.86
2018-09-11T16:13:57.542Z,33.01
2018-09-11T16:16:26.932Z,34.11
2018-09-11T16:18:56.147Z,34.25
2018-09-11T16:21:25.270Z,34.23
2018-09-11T16:23:54.366Z,33.71
2018-09-11T16:26:23.511Z,33.87
2018-09-11T16:28:52.798Z,34.79
2018-09-11T16:31:22.419Z,34.18
2018-09-11T16:33:52.394Z,34.25
2018-09-11T16:36:21.686Z,34.06
2018-09-11T16:38:51.010Z,34.31
2018-09-11T16:41:20.217Z,35.45
2018-09-11T16:43:49.635Z,35.72
2018-09-11T16:46:18.815Z,35.85
2018-09-11T16:48:47.920Z,35.95
2018-09-11T16:51:17.025Z,36.02
2018-09-11T16:53:46.134Z,35.43
2018-09-11T16:56:15.261Z,36.12
2018-09-11T16:58:45.118Z,36.68
2018-09-11T17:01:14.248Z,35.74
2018-09-11T17:03:43.649Z,35.61
2018-09-11T17:06:13.770Z,36.95
2018-09-11T17:08:42.745Z,37.71
2018-09-11T17:11:13.594Z,37.69
2018-09-11T17:13:43.516Z,38.13
2018-09-11T17:16:12.871Z,38.19
2018-09-11T17:18:42.862Z,38.75
2018-09-11T17:21:12.440Z,38.70
2018-09-11T17:23:41.762Z,39.07
2018-09-11T17:26:10.955Z,39.07
2018-09-11T17:28:40.929Z,39.62
2018-09-11T17:31:10.879Z,39.92
2018-09-11T17:33:40.739Z,41.13
2018-09-11T17:36:10.715Z,44.54
2018-09-11T17:38:41.233Z,42.52
2018-09-11T17:41:09.247Z,42.55
2018-09-11T17:43:38.405Z,43.44
2018-09-11T17:46:07.530Z,42.99
2018-09-11T17:48:36.674Z,44.78
2018-09-11T17:51:05.927Z,44.80
2018-09-11T17:53:35.911Z,45.92
2018-09-11T17:56:05.979Z,46.06
2018-09-11T17:58:35.776Z,46.12
2018-09-11T18:01:05.065Z,50.29
2018-09-11T18:03:34.799Z,46.67
2018-09-11T18:06:04.243Z,50.77
2018-09-11T18:08:33.854Z,50.17
2018-09-11T18:11:06.627Z,51.22
2018-09-11T18:13:35.364Z,48.88
2018-09-11T18:16:05.142Z,51.39
2018-09-11T18:18:33.923Z,50.60
2018-09-11T18:21:03.242Z,51.15
2018-09-11T18:23:32.434Z,49.75
2018-09-11T18:26:01.605Z,49.90
2018-09-11T18:28:31.770Z,49.59
2018-09-11T18:31:00.921Z,49.05
2018-09-11T18:33:30.079Z,50.17
2018-09-11T18:35:59.514Z,49.06
2018-09-11T18:38:28.675Z,50.83
2018-09-11T18:40:57.872Z,51.08
2018-09-11T18:43:27.606Z,53.71
2018-09-11T18:45:56.788Z,52.88
2018-09-11T18:48:25.905Z,54.94
2018-09-11T18:50:55.043Z,54.63
2018-09-11T18:53:24.875Z,53.96
2018-09-11T18:55:54.094Z,55.32
2018-09-11T18:58:24.394Z,55.32
2018-09-11T19:00:54.075Z,57.33
2018-09-11T19:03:23.225Z,57.70
2018-09-11T19:05:52.346Z,58.25
2018-09-11T19:08:21.455Z,58.03
2018-09-11T19:10:50.853Z,58.80
2018-09-11T19:13:20.183Z,58.56
2018-09-11T19:15:50.507Z,60.13
2018-09-11T19:18:19.840Z,60.10
2018-09-11T19:20:49.990Z,60.10
2018-09-11T19:23:19.815Z,60.62
2018-09-11T19:25:49.071Z,61.35
2018-09-11T19:28:18.362Z,61.95
2018-09-11T19:30:47.542Z,62.08
2018-09-11T19:33:17.174Z,61.86
2018-09-11T19:35:46.643Z,63.26
2018-09-11T19:38:15.796Z,63.25
2018-09-11T19:40:44.951Z,62.78
2018-09-11T19:43:14.613Z,63.28
2018-09-11T19:45:43.784Z,63.55
2018-09-11T19:48:14.038Z,63.58
2018-09-11T19:50:43.577Z,65.07
2018-09-11T19:53:13.529Z,65.26
2018-09-11T19:55:42.852Z,65.29
2018-09-11T19:58:11.987Z,65.44
2018-09-11T20:00:41.682Z,66.45
2018-09-11T20:03:11.318Z,66.96
2018-09-11T20:05:41.211Z,69.29
2018-09-11T20:08:11.155Z,69.93
2018-09-11T20:10:41.235Z,70.09
2018-09-11T20:13:11.178Z,71.02
2018-09-11T20:15:40.886Z,71.46
2018-09-11T20:18:11.136Z,73.97
2018-09-11T20:20:40.634Z,74.38
2018-09-11T20:23:09.784Z,74.99
2018-09-11T20:25:39.010Z,74.83
2018-09-11T20:28:08.954Z,75.15
2018-09-11T20:30:38.067Z,75.08
2018-09-11T20:33:18.984Z,75.91
2018-09-11T20:35:48.152Z,76.86
2018-09-11T20:38:17.570Z,77.07
2018-09-11T20:40:46.773Z,78.50
2018-09-11T20:43:15.994Z,79.54
2018-09-11T20:45:45.163Z,79.95
2018-09-11T20:48:14.472Z,81.45
2018-09-11T20:50:43.716Z,81.55
2018-09-11T20:53:12.855Z,82.01
2018-09-11T20:55:41.975Z,82.58
2018-09-11T20:58:12.062Z,82.07
2018-09-11T21:00:41.227Z,82.28
2018-09-11T21:03:10.355Z,82.93
2018-09-11T21:05:39.815Z,83.96
2018-09-11T21:08:10.048Z,83.94
2018-09-11T21:10:39.851Z,84.37
2018-09-11T21:13:09.571Z,84.57
2018-09-11T21:15:38.750Z,86.15
2018-09-11T21:18:07.933Z,87.88
2018-09-11T21:20:37.031Z,87.00
2018-09-11T21:23:07.140Z,86.96
2018-09-11T21:25:36.295Z,87.67
2018-09-11T21:28:05.940Z,87.21
2018-09-11T21:30:35.082Z,87.03
2018-09-11T21:33:04.686Z,87.57
2018-09-11T21:35:34.340Z,88.98
2018-09-11T21:38:03.466Z,89.24
2018-09-11T21:40:32.610Z,89.29
2018-09-11T21:43:02.309Z,90.16
2018-09-11T21:45:31.446Z,90.18
2018-09-11T21:48:00.559Z,89.79
2018-09-11T21:50:29.770Z,90.68
2018-09-11T21:52:58.870Z,92.19
2018-09-11T21:55:28.767Z,91.54
2018-09-11T21:57:57.911Z,91.65
2018-09-11T22:00:27.029Z,90.64
2018-09-11T22:02:56.177Z,90.60
2018-09-11T22:05:25.334Z,91.69
2018-09-11T22:07:54.483Z,93.17
2018-09-11T22:10:23.611Z,92.66
2018-09-11T22:12:52.717Z,94.54
2018-09-11T22:15:21.923Z,94.92
2018-09-11T22:17:51.166Z,93.76
2018-09-11T22:20:19.912Z,93.71
2018-09-11T22:22:49.202Z,94.81
2018-09-11T22:25:18.346Z,95.04
2018-09-11T22:27:47.457Z,94.91
2018-09-11T22:30:17.346Z,94.04
2018-09-11T22:32:46.482Z,94.63
2018-09-11T22:35:17.099Z,94.40
2018-09-11T22:37:46.262Z,93.94
2018-09-11T22:40:15.400Z,94.20
2018-09-11T22:42:44.506Z,94.17
2018-09-11T22:45:13.678Z,94.49
2018-09-11T22:47:42.811Z,95.58
2018-09-11T22:50:11.929Z,96.05
2018-09-11T22:52:41.095Z,96.82
2018-09-11T22:55:10.208Z,96.76
2018-09-11T22:57:39.338Z,96.76
2018-09-11T23:00:08.501Z,96.45
2018-09-11T23:02:37.646Z,96.31
2018-09-11T23:05:06.786Z,96.97
2018-09-11T23:07:35.962Z,97.08
2018-09-11T23:10:05.290Z,97.16
2018-09-11T23:12:34.699Z,97.60
2018-09-11T23:15:03.983Z,97.78
2018-09-11T23:17:33.219Z,97.96
2018-09-11T23:20:02.515Z,97.49
2018-09-11T23:22:32.546Z,97.70
2018-09-11T23:25:01.364Z,97.77
2018-09-11T23:27:30.688Z,96.83
2018-09-11T23:29:59.803Z,94.23
2018-09-11T23:32:28.962Z,91.98
2018-09-11T23:34:58.102Z,92.90
2018-09-11T23:37:27.215Z,94.50
2018-09-11T23:39:56.339Z,94.76
2018-09-11T23:42:25.467Z,95.38
2018-09-11T23:44:54.580Z,96.01
2018-09-11T23:47:23.708Z,96.18
2018-09-11T23:49:52.819Z,96.83
2018-09-11T23:52:22.639Z,98.52
2018-09-11T23:54:51.734Z,98.79
2018-09-11T23:57:20.878Z,99.81
2018-09-11T23:59:49.970Z,99.22
